sensor_id;sensor_type;location;lat;lon;timestamp;pressure;altitude;pressure_sealevel;temperature;humidity
69622;BME280;56841;55.964;37.674;2023-02-21T00:02:14;97346.69;;;-13.49;71.86
69622;BME280;56841;55.964;37.674;2023-02-21T00:04:59;97341.16;;;-13.40;72.04
69622;BME280;56841;55.964;37.674;2023-02-21T00:07:43;97349.38;;;-13.35;72.12
69622;BME280;56841;55.964;37.674;2023-02-21T00:10:28;97351.63;;;-13.46;71.54
69622;BME280;56841;55.964;37.674;2023-02-21T00:13:12;97350.63;;;-13.44;71.68
69622;BME280;56841;55.964;37.674;2023-02-21T00:15:57;97345.03;;;-13.68;71.76
69622;BME280;56841;55.964;37.674;2023-02-21T00:18:41;97337.78;;;-13.58;71.92
69622;BME280;56841;55.964;37.674;2023-02-21T00:21:29;97340.41;;;-13.59;71.50
69622;BME280;56841;55.964;37.674;2023-02-21T00:24:15;97333.53;;;-13.57;71.42
69622;BME280;56841;55.964;37.674;2023-02-21T00:27:00;97330.47;;;-13.64;71.64
69622;BME280;56841;55.964;37.674;2023-02-21T00:29:50;97336.31;;;-13.62;71.21
69622;BME280;56841;55.964;37.674;2023-02-21T00:32:34;97329.22;;;-13.55;71.25
69622;BME280;56841;55.964;37.674;2023-02-21T00:35:19;97324.97;;;-13.72;71.13
69622;BME280;56841;55.964;37.674;2023-02-21T00:38:03;97330.56;;;-13.66;71.31
69622;BME280;56841;55.964;37.674;2023-02-21T00:40:48;97326.81;;;-13.76;71.39
69622;BME280;56841;55.964;37.674;2023-02-21T00:43:34;97332.66;;;-13.74;70.74
69622;BME280;56841;55.964;37.674;2023-02-21T00:46:19;97330.19;;;-13.75;70.86
69622;BME280;56841;55.964;37.674;2023-02-21T00:49:05;97332.56;;;-13.90;71.46
69622;BME280;56841;55.964;37.674;2023-02-21T00:51:50;97322.84;;;-13.99;71.05
69622;BME280;56841;55.964;37.674;2023-02-21T00:54:34;97323.47;;;-13.94;71.00
69622;BME280;56841;55.964;37.674;2023-02-21T00:57:20;97325.19;;;-13.94;71.21
69622;BME280;56841;55.964;37.674;2023-02-21T01:00:06;97315.75;;;-14.10;71.32
69622;BME280;56841;55.964;37.674;2023-02-21T01:02:52;97326.66;;;-14.26;71.44
69622;BME280;56841;55.964;37.674;2023-02-21T01:05:37;97320.94;;;-14.13;71.49
69622;BME280;56841;55.964;37.674;2023-02-21T01:08:21;97318.06;;;-14.05;71.46
69622;BME280;56841;55.964;37.674;2023-02-21T01:11:05;97313.97;;;-14.07;70.99
69622;BME280;56841;55.964;37.674;2023-02-21T01:13:49;97303.47;;;-14.19;70.36
69622;BME280;56841;55.964;37.674;2023-02-21T01:16:33;97299.25;;;-14.18;70.76
69622;BME280;56841;55.964;37.674;2023-02-21T01:19:18;97300.34;;;-14.24;70.90
69622;BME280;56841;55.964;37.674;2023-02-21T01:22:03;97300.63;;;-14.30;71.02
69622;BME280;56841;55.964;37.674;2023-02-21T01:24:48;97285.66;;;-14.35;71.14
69622;BME280;56841;55.964;37.674;2023-02-21T01:27:33;97288.44;;;-14.58;71.30
69622;BME280;56841;55.964;37.674;2023-02-21T01:30:17;97285.47;;;-14.49;71.89
69622;BME280;56841;55.964;37.674;2023-02-21T01:33:01;97286.69;;;-14.56;71.85
69622;BME280;56841;55.964;37.674;2023-02-21T01:35:46;97294.28;;;-14.56;71.74
69622;BME280;56841;55.964;37.674;2023-02-21T01:38:34;97294.47;;;-14.61;71.35
69622;BME280;56841;55.964;37.674;2023-02-21T01:41:20;97284.88;;;-14.54;71.47
69622;BME280;56841;55.964;37.674;2023-02-21T01:44:26;97289.97;;;-14.73;71.39
69622;BME280;56841;55.964;37.674;2023-02-21T01:47:11;97291.53;;;-14.70;71.69
69622;BME280;56841;55.964;37.674;2023-02-21T01:49:57;97289.56;;;-14.83;71.73
69622;BME280;56841;55.964;37.674;2023-02-21T01:52:43;97294.88;;;-14.89;72.05
69622;BME280;56841;55.964;37.674;2023-02-21T01:55:28;97298.66;;;-14.78;71.88
69622;BME280;56841;55.964;37.674;2023-02-21T01:58:12;97296.41;;;-14.85;71.88
69622;BME280;56841;55.964;37.674;2023-02-21T02:00:57;97297.75;;;-14.77;72.21
69622;BME280;56841;55.964;37.674;2023-02-21T02:03:41;97283.25;;;-14.93;71.63
69622;BME280;56841;55.964;37.674;2023-02-21T02:06:26;97286.19;;;-15.02;71.69
69622;BME280;56841;55.964;37.674;2023-02-21T02:09:16;97288.97;;;-15.08;71.50
69622;BME280;56841;55.964;37.674;2023-02-21T02:20:01;97294.31;;;-15.14;71.21
69622;BME280;56841;55.964;37.674;2023-02-21T02:23:18;97291.44;;;-15.25;71.49
69622;BME280;56841;55.964;37.674;2023-02-21T02:37:49;97290.03;;;-15.33;71.45
69622;BME280;56841;55.964;37.674;2023-02-21T02:45:45;97288.66;;;-15.40;70.72
69622;BME280;56841;55.964;37.674;2023-02-21T02:48:19;97282.09;;;-15.44;70.65
69622;BME280;56841;55.964;37.674;2023-02-21T02:50:49;97283.00;;;-15.45;70.60
69622;BME280;56841;55.964;37.674;2023-02-21T02:53:19;97277.28;;;-15.50;70.79
69622;BME280;56841;55.964;37.674;2023-02-21T02:56:05;97282.81;;;-15.61;70.36
69622;BME280;56841;55.964;37.674;2023-02-21T02:58:45;97275.88;;;-15.37;70.53
69622;BME280;56841;55.964;37.674;2023-02-21T03:11:50;97268.88;;;-15.50;70.20
69622;BME280;56841;55.964;37.674;2023-02-21T03:14:21;97278.56;;;-15.60;70.14
69622;BME280;56841;55.964;37.674;2023-02-21T03:16:53;97286.44;;;-15.66;70.24
69622;BME280;56841;55.964;37.674;2023-02-21T03:19:27;97275.34;;;-15.64;70.33
69622;BME280;56841;55.964;37.674;2023-02-21T03:21:59;97276.97;;;-15.63;70.26
69622;BME280;56841;55.964;37.674;2023-02-21T03:24:27;97276.28;;;-15.46;70.09
69622;BME280;56841;55.964;37.674;2023-02-21T03:26:59;97272.88;;;-15.45;69.77
69622;BME280;56841;55.964;37.674;2023-02-21T03:29:45;97280.25;;;-15.40;70.05
69622;BME280;56841;55.964;37.674;2023-02-21T03:32:19;97281.53;;;-15.50;70.10
69622;BME280;56841;55.964;37.674;2023-02-21T03:34:48;97284.38;;;-15.38;70.21
69622;BME280;56841;55.964;37.674;2023-02-21T03:37:33;97285.84;;;-15.73;70.49
69622;BME280;56841;55.964;37.674;2023-02-21T03:40:01;97295.13;;;-15.72;70.86
69622;BME280;56841;55.964;37.674;2023-02-21T03:42:30;97280.03;;;-15.55;69.91
69622;BME280;56841;55.964;37.674;2023-02-21T03:44:56;97275.91;;;-15.57;69.84
69622;BME280;56841;55.964;37.674;2023-02-21T03:47:22;97275.66;;;-15.51;69.59
69622;BME280;56841;55.964;37.674;2023-02-21T03:49:48;97283.94;;;-15.47;69.19
69622;BME280;56841;55.964;37.674;2023-02-21T03:52:15;97276.84;;;-15.60;68.79
69622;BME280;56841;55.964;37.674;2023-02-21T03:54:41;97276.50;;;-15.71;68.99
69622;BME280;56841;55.964;37.674;2023-02-21T03:57:10;97283.03;;;-16.06;69.02
69622;BME280;56841;55.964;37.674;2023-02-21T03:59:41;97278.19;;;-16.12;69.53
69622;BME280;56841;55.964;37.674;2023-02-21T04:02:07;97277.44;;;-16.14;69.86
69622;BME280;56841;55.964;37.674;2023-02-21T04:04:33;97283.97;;;-16.31;69.41
69622;BME280;56841;55.964;37.674;2023-02-21T04:07:20;97274.78;;;-16.11;69.63
69622;BME280;56841;55.964;37.674;2023-02-21T04:09:47;97276.72;;;-16.18;69.46
69622;BME280;56841;55.964;37.674;2023-02-21T04:12:18;97274.94;;;-16.36;69.76
69622;BME280;56841;55.964;37.674;2023-02-21T04:14:44;97279.28;;;-16.40;69.92
69622;BME280;56841;55.964;37.674;2023-02-21T04:17:10;97287.25;;;-16.29;70.18
69622;BME280;56841;55.964;37.674;2023-02-21T04:19:37;97283.91;;;-16.29;69.88
69622;BME280;56841;55.964;37.674;2023-02-21T04:22:04;97286.00;;;-16.18;70.25
69622;BME280;56841;55.964;37.674;2023-02-21T04:24:30;97285.47;;;-16.05;70.00
69622;BME280;56841;55.964;37.674;2023-02-21T04:26:56;97290.34;;;-16.00;69.34
69622;BME280;56841;55.964;37.674;2023-02-21T04:29:23;97293.13;;;-16.06;69.34
69622;BME280;56841;55.964;37.674;2023-02-21T04:31:49;97292.94;;;-16.02;68.81
69622;BME280;56841;55.964;37.674;2023-02-21T04:34:16;97292.03;;;-16.01;68.73
69622;BME280;56841;55.964;37.674;2023-02-21T04:36:43;97291.09;;;-15.98;68.91
69622;BME280;56841;55.964;37.674;2023-02-21T04:39:09;97291.88;;;-16.18;68.67
69622;BME280;56841;55.964;37.674;2023-02-21T04:41:36;97294.00;;;-16.07;68.84
69622;BME280;56841;55.964;37.674;2023-02-21T04:44:02;97293.09;;;-16.27;68.49
69622;BME280;56841;55.964;37.674;2023-02-21T04:46:31;97297.72;;;-16.38;69.09
69622;BME280;56841;55.964;37.674;2023-02-21T04:48:57;97296.19;;;-16.42;69.18
69622;BME280;56841;55.964;37.674;2023-02-21T04:51:24;97302.19;;;-16.22;68.59
69622;BME280;56841;55.964;37.674;2023-02-21T04:53:51;97300.81;;;-16.09;68.23
69622;BME280;56841;55.964;37.674;2023-02-21T04:56:19;97302.19;;;-16.22;68.45
69622;BME280;56841;55.964;37.674;2023-02-21T04:58:45;97301.28;;;-16.21;68.07
69622;BME280;56841;55.964;37.674;2023-02-21T05:01:12;97300.81;;;-16.31;68.51
69622;BME280;56841;55.964;37.674;2023-02-21T05:03:38;97301.59;;;-16.51;68.50
69622;BME280;56841;55.964;37.674;2023-02-21T05:06:04;97303.56;;;-16.58;68.62
69622;BME280;56841;55.964;37.674;2023-02-21T05:08:30;97304.53;;;-16.40;68.46
69622;BME280;56841;55.964;37.674;2023-02-21T05:10:56;97306.53;;;-16.48;67.86
69622;BME280;56841;55.964;37.674;2023-02-21T05:13:22;97307.63;;;-16.55;67.96
69622;BME280;56841;55.964;37.674;2023-02-21T05:15:48;97299.44;;;-16.60;68.36
69622;BME280;56841;55.964;37.674;2023-02-21T05:18:15;97307.75;;;-16.58;68.53
69622;BME280;56841;55.964;37.674;2023-02-21T05:20:49;97316.88;;;-16.54;68.46
69622;BME280;56841;55.964;37.674;2023-02-21T05:23:17;97317.16;;;-16.62;68.63
69622;BME280;56841;55.964;37.674;2023-02-21T05:26:09;97309.34;;;-16.56;68.64
69622;BME280;56841;55.964;37.674;2023-02-21T05:28:37;97316.94;;;-16.34;68.22
69622;BME280;56841;55.964;37.674;2023-02-21T05:31:03;97315.78;;;-16.47;67.57
69622;BME280;56841;55.964;37.674;2023-02-21T05:33:29;97312.81;;;-16.58;68.27
69622;BME280;56841;55.964;37.674;2023-02-21T05:35:55;97314.41;;;-16.56;68.35
69622;BME280;56841;55.964;37.674;2023-02-21T05:38:22;97317.66;;;-16.30;68.00
69622;BME280;56841;55.964;37.674;2023-02-21T05:40:48;97317.34;;;-16.44;67.56
69622;BME280;56841;55.964;37.674;2023-02-21T05:43:14;97315.50;;;-16.41;67.85
69622;BME280;56841;55.964;37.674;2023-02-21T05:45:40;97316.09;;;-16.56;67.71
69622;BME280;56841;55.964;37.674;2023-02-21T05:48:06;97326.84;;;-16.51;67.88
69622;BME280;56841;55.964;37.674;2023-02-21T05:50:32;97316.88;;;-16.54;68.11
69622;BME280;56841;55.964;37.674;2023-02-21T05:52:59;97316.22;;;-16.37;67.87
69622;BME280;56841;55.964;37.674;2023-02-21T05:55:25;97319.47;;;-16.34;67.69
69622;BME280;56841;55.964;37.674;2023-02-21T05:57:52;97316.88;;;-16.32;67.75
69622;BME280;56841;55.964;37.674;2023-02-21T06:00:20;97325.09;;;-16.27;67.52
69622;BME280;56841;55.964;37.674;2023-02-21T06:02:49;97328.03;;;-16.38;67.51
69622;BME280;56841;55.964;37.674;2023-02-21T06:05:15;97326.56;;;-16.21;67.42
69622;BME280;56841;55.964;37.674;2023-02-21T06:07:41;97322.81;;;-16.11;66.80
69622;BME280;56841;55.964;37.674;2023-02-21T06:10:07;97321.19;;;-15.92;66.41
69622;BME280;56841;55.964;37.674;2023-02-21T06:12:33;97327.00;;;-15.90;66.19
69622;BME280;56841;55.964;37.674;2023-02-21T06:14:59;97337.81;;;-15.86;66.36
69622;BME280;56841;55.964;37.674;2023-02-21T06:17:25;97337.81;;;-15.86;66.16
69622;BME280;56841;55.964;37.674;2023-02-21T06:19:51;97334.88;;;-15.75;66.26
69622;BME280;56841;55.964;37.674;2023-02-21T06:22:17;97334.22;;;-15.81;65.91
69622;BME280;56841;55.964;37.674;2023-02-21T06:24:43;97335.38;;;-15.67;66.23
69622;BME280;56841;55.964;37.674;2023-02-21T06:27:08;97334.56;;;-15.68;65.86
69622;BME280;56841;55.964;37.674;2023-02-21T06:29:34;97333.16;;;-15.55;65.98
69622;BME280;56841;55.964;37.674;2023-02-21T06:32:00;97332.19;;;-15.52;66.31
69622;BME280;56841;55.964;37.674;2023-02-21T06:34:27;97317.16;;;-15.35;66.10
69622;BME280;56841;55.964;37.674;2023-02-21T06:36:54;97330.28;;;-15.47;66.30
69622;BME280;56841;55.964;37.674;2023-02-21T06:39:21;97328.84;;;-15.53;66.43
69622;BME280;56841;55.964;37.674;2023-02-21T06:41:48;97328.22;;;-15.37;66.71
69622;BME280;56841;55.964;37.674;2023-02-21T06:44:14;97321.75;;;-15.24;66.40
69622;BME280;56841;55.964;37.674;2023-02-21T06:46:41;97319.44;;;-14.91;65.81
69622;BME280;56841;55.964;37.674;2023-02-21T06:49:08;97333.19;;;-15.15;65.88
69622;BME280;56841;55.964;37.674;2023-02-21T06:51:35;97330.59;;;-15.14;65.78
69622;BME280;56841;55.964;37.674;2023-02-21T06:54:01;97334.56;;;-15.08;66.14
69622;BME280;56841;55.964;37.674;2023-02-21T06:56:27;97336.28;;;-15.09;66.24
69622;BME280;56841;55.964;37.674;2023-02-21T06:58:53;97334.25;;;-14.82;65.93
69622;BME280;56841;55.964;37.674;2023-02-21T07:01:20;97325.69;;;-14.79;65.96
69622;BME280;56841;55.964;37.674;2023-02-21T07:03:45;97335.28;;;-14.67;65.64
69622;BME280;56841;55.964;37.674;2023-02-21T07:06:12;97329.00;;;-14.58;65.49
69622;BME280;56841;55.964;37.674;2023-02-21T07:08:38;97332.63;;;-14.83;65.64
69622;BME280;56841;55.964;37.674;2023-02-21T07:11:04;97335.25;;;-14.48;65.17
69622;BME280;56841;55.964;37.674;2023-02-21T07:13:31;97331.75;;;-14.63;65.97
69622;BME280;56841;55.964;37.674;2023-02-21T07:15:56;97328.06;;;-14.38;65.99
69622;BME280;56841;55.964;37.674;2023-02-21T07:18:22;97329.16;;;-14.25;66.08
69622;BME280;56841;55.964;37.674;2023-02-21T07:20:48;97332.63;;;-14.27;65.80
69622;BME280;56841;55.964;37.674;2023-02-21T07:23:14;97329.25;;;-13.92;65.75
69622;BME280;56841;55.964;37.674;2023-02-21T07:25:40;97325.34;;;-13.80;65.07
69622;BME280;56841;55.964;37.674;2023-02-21T07:28:06;97326.97;;;-13.79;64.97
69622;BME280;56841;55.964;37.674;2023-02-21T07:30:32;97321.53;;;-13.71;65.13
69622;BME280;56841;55.964;37.674;2023-02-21T07:32:59;97324.22;;;-13.57;65.11
69622;BME280;56841;55.964;37.674;2023-02-21T07:35:25;97327.50;;;-13.55;65.17
69622;BME280;56841;55.964;37.674;2023-02-21T07:37:51;97326.53;;;-13.52;64.98
69622;BME280;56841;55.964;37.674;2023-02-21T07:40:17;97322.19;;;-13.33;65.29
69622;BME280;56841;55.964;37.674;2023-02-21T07:42:43;97326.06;;;-13.26;65.35
69622;BME280;56841;55.964;37.674;2023-02-21T07:45:10;97324.06;;;-13.21;65.81
69622;BME280;56841;55.964;37.674;2023-02-21T07:47:36;97325.97;;;-12.91;66.71
69622;BME280;56841;55.964;37.674;2023-02-21T07:50:04;97327.13;;;-12.81;65.04
69622;BME280;56841;55.964;37.674;2023-02-21T07:52:30;97318.78;;;-12.67;65.37
69622;BME280;56841;55.964;37.674;2023-02-21T07:54:56;97327.03;;;-12.95;65.50
69622;BME280;56841;55.964;37.674;2023-02-21T07:57:22;97333.03;;;-12.80;66.43
69622;BME280;56841;55.964;37.674;2023-02-21T07:59:48;97325.81;;;-12.72;66.00
69622;BME280;56841;55.964;37.674;2023-02-21T08:02:14;97324.72;;;-12.51;65.49
69622;BME280;56841;55.964;37.674;2023-02-21T08:04:40;97331.50;;;-12.35;64.96
69622;BME280;56841;55.964;37.674;2023-02-21T08:07:07;97330.38;;;-12.30;65.11
69622;BME280;56841;55.964;37.674;2023-02-21T08:09:34;97323.78;;;-12.18;65.07
69622;BME280;56841;55.964;37.674;2023-02-21T08:12:01;97329.84;;;-12.05;64.76
69622;BME280;56841;55.964;37.674;2023-02-21T08:14:27;97334.13;;;-12.05;64.77
69622;BME280;56841;55.964;37.674;2023-02-21T08:16:53;97332.91;;;-12.14;65.44
69622;BME280;56841;55.964;37.674;2023-02-21T08:19:19;97338.06;;;-12.00;65.27
69622;BME280;56841;55.964;37.674;2023-02-21T08:21:48;97336.47;;;-11.86;64.93
69622;BME280;56841;55.964;37.674;2023-02-21T08:24:15;97335.03;;;-11.76;65.32
69622;BME280;56841;55.964;37.674;2023-02-21T08:26:41;97335.94;;;-11.77;65.36
69622;BME280;56841;55.964;37.674;2023-02-21T08:29:10;97343.72;;;-11.64;65.33
69622;BME280;56841;55.964;37.674;2023-02-21T08:31:37;97338.66;;;-11.50;64.61
69622;BME280;56841;55.964;37.674;2023-02-21T08:34:04;97334.31;;;-11.48;64.59
69622;BME280;56841;55.964;37.674;2023-02-21T08:36:34;97325.81;;;-11.18;64.28
69622;BME280;56841;55.964;37.674;2023-02-21T08:39:01;97328.09;;;-11.14;64.14
69622;BME280;56841;55.964;37.674;2023-02-21T08:41:44;97322.63;;;-11.08;63.87
69622;BME280;56841;55.964;37.674;2023-02-21T08:44:13;97335.69;;;-11.42;64.70
69622;BME280;56841;55.964;37.674;2023-02-21T08:46:41;97323.88;;;-11.29;64.62
69622;BME280;56841;55.964;37.674;2023-02-21T08:49:07;97325.28;;;-11.09;64.68
69622;BME280;56841;55.964;37.674;2023-02-21T08:51:33;97321.97;;;-11.26;64.73
69622;BME280;56841;55.964;37.674;2023-02-21T08:53:59;97324.75;;;-11.00;64.27
69622;BME280;56841;55.964;37.674;2023-02-21T08:56:26;97325.66;;;-10.87;64.10
69622;BME280;56841;55.964;37.674;2023-02-21T08:58:53;97327.53;;;-10.47;63.40
69622;BME280;56841;55.964;37.674;2023-02-21T09:01:20;97326.72;;;-10.48;63.46
69622;BME280;56841;55.964;37.674;2023-02-21T09:03:46;97326.81;;;-10.35;62.40
69622;BME280;56841;55.964;37.674;2023-02-21T09:06:12;97326.44;;;-10.16;62.30
69622;BME280;56841;55.964;37.674;2023-02-21T09:08:38;97330.06;;;-10.33;62.33
69622;BME280;56841;55.964;37.674;2023-02-21T09:11:06;97325.63;;;-10.17;62.35
69622;BME280;56841;55.964;37.674;2023-02-21T09:13:32;97326.38;;;-10.15;62.29
69622;BME280;56841;55.964;37.674;2023-02-21T09:15:59;97323.41;;;-10.36;62.16
69622;BME280;56841;55.964;37.674;2023-02-21T09:18:26;97325.81;;;-10.20;62.93
69622;BME280;56841;55.964;37.674;2023-02-21T09:20:52;97328.47;;;-10.21;62.58
69622;BME280;56841;55.964;37.674;2023-02-21T09:23:26;97322.69;;;-10.11;62.30
69622;BME280;56841;55.964;37.674;2023-02-21T09:25:52;97322.22;;;-10.03;62.03
69622;BME280;56841;55.964;37.674;2023-02-21T09:28:18;97327.88;;;-9.85;62.08
69622;BME280;56841;55.964;37.674;2023-02-21T09:30:45;97325.81;;;-9.66;61.57
69622;BME280;56841;55.964;37.674;2023-02-21T09:33:12;97330.00;;;-9.92;61.73
69622;BME280;56841;55.964;37.674;2023-02-21T09:35:38;97330.72;;;-9.63;61.28
69622;BME280;56841;55.964;37.674;2023-02-21T09:38:05;97332.13;;;-9.32;60.30
69622;BME280;56841;55.964;37.674;2023-02-21T09:40:57;97322.41;;;-9.14;60.10
69622;BME280;56841;55.964;37.674;2023-02-21T09:43:45;97317.31;;;-9.14;59.70
69622;BME280;56841;55.964;37.674;2023-02-21T09:46:20;97323.03;;;-9.10;59.79
69622;BME280;56841;55.964;37.674;2023-02-21T09:48:48;97321.81;;;-9.04;59.49
69622;BME280;56841;55.964;37.674;2023-02-21T09:51:15;97316.28;;;-8.98;59.03
69622;BME280;56841;55.964;37.674;2023-02-21T09:53:43;97329.56;;;-9.32;59.62
69622;BME280;56841;55.964;37.674;2023-02-21T09:58:42;97321.19;;;-9.08;59.11
69622;BME280;56841;55.964;37.674;2023-02-21T10:09:52;97327.22;;;-8.96;58.72
69622;BME280;56841;55.964;37.674;2023-02-21T10:18:51;97325.81;;;-8.38;56.83
69622;BME280;56841;55.964;37.674;2023-02-21T10:20:53;97320.72;;;-8.38;57.18
69622;BME280;56841;55.964;37.674;2023-02-21T10:23:27;97323.03;;;-8.35;57.04
69622;BME280;56841;55.964;37.674;2023-02-21T10:26:00;97328.94;;;-8.59;57.28
69622;BME280;56841;55.964;37.674;2023-02-21T10:28:28;97329.44;;;-8.53;57.79
69622;BME280;56841;55.964;37.674;2023-02-21T10:30:58;97335.28;;;-8.51;57.44
69622;BME280;56841;55.964;37.674;2023-02-21T10:33:26;97338.16;;;-8.69;57.58
69622;BME280;56841;55.964;37.674;2023-02-21T10:35:52;97341.22;;;-8.51;57.15
69622;BME280;56841;55.964;37.674;2023-02-21T10:38:23;97342.59;;;-8.34;56.49
69622;BME280;56841;55.964;37.674;2023-02-21T10:40:52;97338.56;;;-8.25;55.94
69622;BME280;56841;55.964;37.674;2023-02-21T10:43:33;97342.16;;;-8.28;55.82
69622;BME280;56841;55.964;37.674;2023-02-21T10:46:19;97346.50;;;-8.41;56.05
69622;BME280;56841;55.964;37.674;2023-02-21T10:48:52;97345.63;;;-8.53;56.17
69622;BME280;56841;55.964;37.674;2023-02-21T10:51:33;97357.31;;;-8.25;56.00
69622;BME280;56841;55.964;37.674;2023-02-21T10:54:35;97363.88;;;-7.97;55.61
69622;BME280;56841;55.964;37.674;2023-02-21T10:57:03;97360.94;;;-7.79;55.29
69622;BME280;56841;55.964;37.674;2023-02-21T10:59:38;97363.22;;;-7.75;55.03
69622;BME280;56841;55.964;37.674;2023-02-21T11:02:32;97371.53;;;-7.84;55.17
69622;BME280;56841;55.964;37.674;2023-02-21T11:05:18;97377.03;;;-7.77;55.60
69622;BME280;56841;55.964;37.674;2023-02-21T11:08:01;97368.81;;;-7.70;55.40
69622;BME280;56841;55.964;37.674;2023-02-21T11:10:38;97370.38;;;-7.56;55.13
69622;BME280;56841;55.964;37.674;2023-02-21T11:13:12;97375.47;;;-7.67;54.71
69622;BME280;56841;55.964;37.674;2023-02-21T11:15:41;97374.66;;;-7.68;54.27
69622;BME280;56841;55.964;37.674;2023-02-21T11:18:18;97369.31;;;-7.65;54.35
69622;BME280;56841;55.964;37.674;2023-02-21T11:20:47;97373.41;;;-7.62;54.29
69622;BME280;56841;55.964;37.674;2023-02-21T11:23:55;97379.22;;;-7.60;54.86
69622;BME280;56841;55.964;37.674;2023-02-21T11:26:24;97376.56;;;-7.58;54.60
69622;BME280;56841;55.964;37.674;2023-02-21T11:28:49;97381.53;;;-7.68;54.35
69622;BME280;56841;55.964;37.674;2023-02-21T11:31:28;97388.41;;;-7.69;54.29
69622;BME280;56841;55.964;37.674;2023-02-21T11:33:59;97394.44;;;-7.70;54.39
69622;BME280;56841;55.964;37.674;2023-02-21T11:36:28;97383.09;;;-7.54;54.76
69622;BME280;56841;55.964;37.674;2023-02-21T11:39:25;97389.66;;;-7.50;55.75
69622;BME280;56841;55.964;37.674;2023-02-21T11:42:02;97387.81;;;-7.48;55.74
69622;BME280;56841;55.964;37.674;2023-02-21T11:44:30;97387.31;;;-7.53;55.67
69622;BME280;56841;55.964;37.674;2023-02-21T11:52:48;97403.81;;;-7.57;55.87
69622;BME280;56841;55.964;37.674;2023-02-21T11:55:21;97406.44;;;-7.46;56.36
69622;BME280;56841;55.964;37.674;2023-02-21T12:05:52;97409.38;;;-7.40;56.19
69622;BME280;56841;55.964;37.674;2023-02-21T12:08:39;97417.13;;;-7.52;56.04
69622;BME280;56841;55.964;37.674;2023-02-21T12:11:30;97427.88;;;-7.47;56.11
69622;BME280;56841;55.964;37.674;2023-02-21T12:47:23;97466.84;;;-7.92;55.11
69622;BME280;56841;55.964;37.674;2023-02-21T12:52:33;97478.84;;;-7.92;55.20
69622;BME280;56841;55.964;37.674;2023-02-21T12:57:39;97485.13;;;-8.09;54.88
69622;BME280;56841;55.964;37.674;2023-02-21T13:00:22;97488.41;;;-8.20;55.08
69622;BME280;56841;55.964;37.674;2023-02-21T13:05:45;97496.72;;;-8.54;55.07
69622;BME280;56841;55.964;37.674;2023-02-21T13:08:25;97498.44;;;-8.55;55.34
69622;BME280;56841;55.964;37.674;2023-02-21T13:11:23;97501.31;;;-8.60;55.02
69622;BME280;56841;55.964;37.674;2023-02-21T13:13:46;97500.56;;;-8.74;55.82
69622;BME280;56841;55.964;37.674;2023-02-21T13:16:13;97507.19;;;-8.72;55.93
69622;BME280;56841;55.964;37.674;2023-02-21T13:21:24;97519.78;;;-8.69;55.99
69622;BME280;56841;55.964;37.674;2023-02-21T13:32:54;97520.91;;;-5.82;48.74
69622;BME280;56841;55.964;37.674;2023-02-21T13:35:37;97531.66;;;-5.54;48.20
69622;BME280;56841;55.964;37.674;2023-02-21T13:38:06;97525.53;;;-5.08;47.43
69622;BME280;56841;55.964;37.674;2023-02-21T13:40:53;97538.75;;;-5.02;47.12
69622;BME280;56841;55.964;37.674;2023-02-21T13:43:32;97538.75;;;-5.13;47.69
69622;BME280;56841;55.964;37.674;2023-02-21T13:46:24;97536.31;;;-4.50;46.16
69622;BME280;56841;55.964;37.674;2023-02-21T13:52:24;97544.63;;;-4.46;45.35
69622;BME280;56841;55.964;37.674;2023-02-21T13:58:22;97550.31;;;-4.64;45.58
69622;BME280;56841;55.964;37.674;2023-02-21T14:13:51;97569.63;;;-5.02;46.68
69622;BME280;56841;55.964;37.674;2023-02-21T14:16:25;97577.00;;;-5.76;47.73
69622;BME280;56841;55.964;37.674;2023-02-21T14:18:56;97588.84;;;-6.66;50.26
69622;BME280;56841;55.964;37.674;2023-02-21T14:24:14;97604.03;;;-7.49;52.43
69622;BME280;56841;55.964;37.674;2023-02-21T14:29:36;97614.72;;;-8.06;53.72
69622;BME280;56841;55.964;37.674;2023-02-21T14:36:58;97628.84;;;-8.53;55.57
69622;BME280;56841;55.964;37.674;2023-02-21T14:39:35;97630.00;;;-8.72;56.15
69622;BME280;56841;55.964;37.674;2023-02-21T14:48:48;97645.09;;;-9.09;57.86
69622;BME280;56841;55.964;37.674;2023-02-21T14:51:41;97649.66;;;-9.14;57.73
69622;BME280;56841;55.964;37.674;2023-02-21T15:02:42;97681.63;;;-9.49;59.40
69622;BME280;56841;55.964;37.674;2023-02-21T15:08:04;97695.28;;;-9.65;59.85
69622;BME280;56841;55.964;37.674;2023-02-21T15:10:39;97703.00;;;-9.81;60.67
69622;BME280;56841;55.964;37.674;2023-02-21T15:13:24;97703.00;;;-9.81;60.35
69622;BME280;56841;55.964;37.674;2023-02-21T15:16:03;97707.88;;;-9.92;60.74
69622;BME280;56841;55.964;37.674;2023-02-21T15:18:38;97719.63;;;-10.04;60.90
69622;BME280;56841;55.964;37.674;2023-02-21T15:23:44;97724.19;;;-10.24;61.87
69622;BME280;56841;55.964;37.674;2023-02-21T15:26:25;97730.75;;;-10.35;61.96
69622;BME280;56841;55.964;37.674;2023-02-21T15:29:07;97730.97;;;-10.39;62.36
69622;BME280;56841;55.964;37.674;2023-02-21T15:31:48;97745.81;;;-10.46;62.31
69622;BME280;56841;55.964;37.674;2023-02-21T15:34:17;97748.13;;;-10.57;63.12
69622;BME280;56841;55.964;37.674;2023-02-21T15:36:45;97751.66;;;-10.60;63.07
69622;BME280;56841;55.964;37.674;2023-02-21T15:39:23;97760.69;;;-10.70;63.22
69622;BME280;56841;55.964;37.674;2023-02-21T15:41:52;97765.88;;;-10.71;63.33
69622;BME280;56841;55.964;37.674;2023-02-21T15:47:11;97769.00;;;-10.82;63.79
69622;BME280;56841;55.964;37.674;2023-02-21T15:52:34;97773.69;;;-10.90;64.07
69622;BME280;56841;55.964;37.674;2023-02-21T16:00:36;97794.28;;;-11.11;65.33
69622;BME280;56841;55.964;37.674;2023-02-21T16:03:28;97798.16;;;-11.04;64.83
69622;BME280;56841;55.964;37.674;2023-02-21T16:06:12;97805.34;;;-11.12;64.60
69622;BME280;56841;55.964;37.674;2023-02-21T16:08:50;97802.22;;;-11.17;64.79
69622;BME280;56841;55.964;37.674;2023-02-21T16:11:18;97812.56;;;-11.20;64.89
69622;BME280;56841;55.964;37.674;2023-02-21T16:13:44;97817.66;;;-11.20;65.12
69622;BME280;56841;55.964;37.674;2023-02-21T16:16:11;97814.84;;;-11.31;65.20